createdAt,value
2022-12-28T00:00:30.508Z,8.00
2022-12-28T00:06:50.760Z,8.10
2022-12-28T00:13:09.218Z,8.20
2022-12-28T00:19:04.517Z,8.20
2022-12-28T00:24:59.043Z,8.20
2022-12-28T00:31:17.621Z,8.20
2022-12-28T00:37:36.572Z,8.30
2022-12-28T00:43:31.863Z,8.30
2022-12-28T00:49:26.331Z,8.30
2022-12-28T00:56:03.840Z,8.40
2022-12-28T01:02:22.252Z,8.50
2022-12-28T01:08:16.616Z,8.40
2022-12-28T01:14:11.077Z,8.40
2022-12-28T01:20:29.611Z,8.40
2022-12-28T01:26:48.024Z,8.40
2022-12-28T01:32:42.391Z,8.40
2022-12-28T01:38:36.968Z,8.40
2022-12-28T01:44:55.529Z,8.40
2022-12-28T01:51:13.922Z,8.50
2022-12-28T01:57:08.270Z,8.50
2022-12-28T02:03:09.116Z,8.60
2022-12-28T02:09:39.577Z,8.60
2022-12-28T02:15:57.926Z,8.80
2022-12-28T02:21:52.321Z,8.80
2022-12-28T02:28:01.882Z,8.80
2022-12-28T02:34:34.573Z,8.90
2022-12-28T02:40:59.378Z,8.90
2022-12-28T02:47:12.505Z,8.90
2022-12-28T02:53:15.943Z,8.90
2022-12-28T02:59:49.208Z,9.00
2022-12-28T03:06:30.206Z,9.00
2022-12-28T03:12:26.543Z,9.10
2022-12-28T03:18:39.246Z,9.10
2022-12-28T03:25:17.675Z,9.10
2022-12-28T03:31:36.147Z,9.20
2022-12-28T03:37:38.466Z,9.20
2022-12-28T03:43:43.628Z,9.20
2022-12-28T03:50:02.157Z,9.20
2022-12-28T03:56:25.586Z,9.20
2022-12-28T04:02:20.221Z,9.10
2022-12-28T04:08:14.872Z,9.10
2022-12-28T04:14:33.362Z,9.10
2022-12-28T04:20:51.827Z,9.20
2022-12-28T04:26:47.198Z,9.20
2022-12-28T04:32:41.688Z,9.20
2022-12-28T04:39:00.408Z,9.30
2022-12-28T04:45:22.226Z,9.30
2022-12-28T04:51:17.918Z,9.30
2022-12-28T04:57:12.366Z,9.30
2022-12-28T05:03:43.966Z,9.40
2022-12-28T05:10:04.559Z,9.40
2022-12-28T05:16:02.533Z,9.40
2022-12-28T05:21:57.027Z,9.40
2022-12-28T05:28:15.522Z,9.40
2022-12-28T05:34:33.915Z,9.40
2022-12-28T05:40:28.342Z,9.40
2022-12-28T05:46:30.636Z,9.40
2022-12-28T05:52:49.156Z,9.40
2022-12-28T05:59:07.608Z,9.50
2022-12-28T06:05:01.979Z,9.50
2022-12-28T06:11:00.888Z,9.50
2022-12-28T06:17:19.364Z,9.60
2022-12-28T06:23:37.733Z,9.60
2022-12-28T06:29:32.099Z,9.60
2022-12-28T06:35:26.570Z,9.60
2022-12-28T06:41:45.087Z,9.70
2022-12-28T06:48:03.551Z,9.70
2022-12-28T06:53:58.016Z,9.60
2022-12-28T06:59:52.500Z,9.60
2022-12-28T07:06:25.459Z,9.60
2022-12-28T07:12:43.842Z,9.70
2022-12-28T07:18:38.365Z,9.70
2022-12-28T07:24:32.820Z,9.70
2022-12-28T07:30:51.405Z,9.70
2022-12-28T07:37:09.790Z,9.70
2022-12-28T07:43:04.150Z,9.70
2022-12-28T07:48:58.692Z,9.70
2022-12-28T07:55:17.816Z,9.80
2022-12-28T08:01:36.495Z,9.80
2022-12-28T08:07:30.945Z,9.80
2022-12-28T08:13:25.413Z,9.80
2022-12-28T08:19:43.907Z,9.90
2022-12-28T08:26:12.541Z,10.00
2022-12-28T08:32:06.939Z,9.90
2022-12-28T08:38:01.451Z,9.90
2022-12-28T08:44:19.976Z,10.00
2022-12-28T08:50:38.401Z,10.10
2022-12-28T08:56:33.652Z,10.10
2022-12-28T09:02:28.272Z,10.10
2022-12-28T09:09:07.212Z,10.10
2022-12-28T09:15:25.860Z,10.00
2022-12-28T09:21:20.472Z,9.90
2022-12-28T09:27:14.936Z,9.90
2022-12-28T09:34:32.066Z,9.80
2022-12-28T09:40:31.225Z,9.80
2022-12-28T09:46:25.603Z,9.70
2022-12-28T09:52:33.164Z,9.70
2022-12-28T09:58:51.707Z,9.70
2022-12-28T10:05:10.408Z,9.70
2022-12-28T10:11:04.922Z,9.60
2022-12-28T10:16:59.432Z,9.60
2022-12-28T10:23:24.767Z,9.70
2022-12-28T10:29:43.158Z,9.70
2022-12-28T10:35:39.134Z,9.70
2022-12-28T10:41:36.206Z,9.70
2022-12-28T10:47:55.691Z,9.70
2022-12-28T10:54:28.094Z,9.70
2022-12-28T11:00:26.167Z,9.70
2022-12-28T11:06:26.569Z,9.70
2022-12-28T11:12:59.091Z,9.80
2022-12-28T11:19:17.512Z,9.80
2022-12-28T11:25:14.847Z,9.80
2022-12-28T11:31:10.970Z,9.90
2022-12-28T11:37:29.602Z,9.90
2022-12-28T11:43:48.635Z,10.00
2022-12-28T11:49:43.595Z,10.00
2022-12-28T11:55:38.057Z,10.00
2022-12-28T12:02:04.934Z,10.10
2022-12-28T12:08:23.313Z,10.10
2022-12-28T12:14:18.556Z,10.20
2022-12-28T12:20:36.024Z,10.30
2022-12-28T12:26:58.752Z,10.40
2022-12-28T12:33:19.575Z,10.50
2022-12-28T12:39:36.153Z,10.40
2022-12-28T12:45:33.349Z,10.60
2022-12-28T12:52:11.357Z,10.80
2022-12-28T12:58:31.672Z,10.70
2022-12-28T13:04:26.817Z,10.70
2022-12-28T13:10:34.054Z,10.80
2022-12-28T13:17:04.561Z,10.80
2022-12-28T13:23:23.827Z,10.90
2022-12-28T13:29:22.067Z,10.80
2022-12-28T13:35:18.798Z,10.80
2022-12-28T13:41:37.397Z,10.90
2022-12-28T13:47:55.781Z,10.90
2022-12-28T13:53:51.728Z,10.90
2022-12-28T13:59:46.241Z,10.80
2022-12-28T14:06:04.948Z,10.80
2022-12-28T14:12:23.357Z,10.80
2022-12-28T14:18:17.769Z,10.70
2022-12-28T14:24:14.165Z,10.60
2022-12-28T14:30:39.953Z,10.50
2022-12-28T14:36:58.348Z,10.50
2022-12-28T14:42:52.788Z,10.40
2022-12-28T14:48:47.297Z,10.30
2022-12-28T14:55:22.424Z,10.20
2022-12-28T15:01:41.949Z,10.20
2022-12-28T15:07:36.419Z,10.10
2022-12-28T15:13:30.950Z,10.00
2022-12-28T15:20:01.415Z,10.00
2022-12-28T15:26:19.867Z,10.00
2022-12-28T15:32:14.230Z,9.90
2022-12-28T15:38:08.712Z,9.90
2022-12-28T15:44:27.201Z,10.00
2022-12-28T15:50:45.600Z,10.00
2022-12-28T15:56:40.243Z,9.90
2022-12-28T16:02:35.955Z,9.90
2022-12-28T16:08:55.624Z,10.00
2022-12-28T16:15:14.318Z,9.90
2022-12-28T16:21:09.189Z,9.80
2022-12-28T16:27:08.909Z,9.80
2022-12-28T16:33:27.445Z,9.80
2022-12-28T16:39:45.829Z,9.90
2022-12-28T16:45:40.994Z,9.80
2022-12-28T16:51:35.520Z,9.80
2022-12-28T16:57:54.133Z,9.80
2022-12-28T17:04:12.508Z,9.90
2022-12-28T17:10:07.999Z,9.80
2022-12-28T17:16:02.601Z,9.90
2022-12-28T17:22:34.303Z,9.90
2022-12-28T17:28:52.808Z,10.00
2022-12-28T17:34:48.200Z,10.00
2022-12-28T17:40:42.749Z,10.10
2022-12-28T17:47:01.241Z,10.10
2022-12-28T17:53:19.613Z,10.20
2022-12-28T17:59:15.182Z,10.20
2022-12-28T18:05:09.926Z,10.30
2022-12-28T18:11:28.506Z,10.30
2022-12-28T18:17:48.318Z,10.30
2022-12-28T18:23:46.086Z,10.30
2022-12-28T18:29:40.573Z,10.40
2022-12-28T18:35:59.587Z,10.40
2022-12-28T18:42:19.781Z,10.50
2022-12-28T18:48:14.151Z,10.50
2022-12-28T18:54:08.721Z,10.60
2022-12-28T19:00:27.195Z,10.70
2022-12-28T19:06:45.696Z,10.70
2022-12-28T19:12:40.426Z,10.70
2022-12-28T19:18:34.933Z,10.70
2022-12-28T19:25:06.472Z,10.70
2022-12-28T19:31:24.925Z,10.70
2022-12-28T19:37:19.339Z,10.80
2022-12-28T19:43:14.454Z,10.80
2022-12-28T19:49:32.952Z,10.90
2022-12-28T19:55:51.355Z,11.00
2022-12-28T20:01:45.950Z,11.00
2022-12-28T20:07:40.501Z,11.10
2022-12-28T20:14:02.357Z,11.10
2022-12-28T20:20:26.644Z,11.20
2022-12-28T20:26:22.372Z,11.10
2022-12-28T20:32:16.912Z,11.10
2022-12-28T20:38:35.389Z,11.10
2022-12-28T20:44:56.453Z,11.20
2022-12-28T20:50:55.204Z,11.20
2022-12-28T20:56:54.715Z,11.10
2022-12-28T21:03:14.185Z,11.10
2022-12-28T21:09:32.621Z,11.10
2022-12-28T21:15:27.120Z,11.00
2022-12-28T21:21:24.326Z,11.10
2022-12-28T21:27:54.826Z,11.10
2022-12-28T21:34:13.220Z,11.20
2022-12-28T21:40:08.143Z,11.20
2022-12-28T21:46:09.653Z,11.30
2022-12-28T21:52:34.865Z,11.40
2022-12-28T21:58:53.318Z,11.50
2022-12-28T22:05:20.096Z,11.60
2022-12-28T22:11:33.641Z,11.60
2022-12-28T22:18:36.691Z,11.60
2022-12-28T22:24:56.696Z,11.80
2022-12-28T22:30:51.056Z,11.70
2022-12-28T22:36:45.505Z,11.70
2022-12-28T22:43:04.011Z,11.80
2022-12-28T22:49:22.403Z,11.80
2022-12-28T22:55:16.941Z,11.80
2022-12-28T23:01:13.252Z,11.80
2022-12-28T23:07:31.889Z,11.90
2022-12-28T23:13:50.323Z,11.90
2022-12-28T23:20:03.319Z,11.80
2022-12-28T23:26:19.187Z,11.80
2022-12-28T23:32:50.447Z,11.80
2022-12-28T23:39:08.805Z,11.70
2022-12-28T23:45:04.041Z,11.70
2022-12-28T23:51:08.259Z,11.50
2022-12-28T23:57:27.131Z,11.40
